sensor_id;sensor_type;location;lat;lon;timestamp;P1;durP1;ratioP1;P2;durP2;ratioP2
6667;SDS011;3370;47.712;9.082;2024-01-16T00:00:51;6.90;;;5.00;;
6667;SDS011;3370;47.712;9.082;2024-01-16T00:03:16;5.77;;;4.07;;
6667;SDS011;3370;47.712;9.082;2024-01-16T00:05:42;7.70;;;4.37;;
6667;SDS011;3370;47.712;9.082;2024-01-16T00:08:08;8.40;;;4.70;;
6667;SDS011;3370;47.712;9.082;2024-01-16T00:10:34;5.27;;;4.77;;
6667;SDS011;3370;47.712;9.082;2024-01-16T00:12:59;6.17;;;4.80;;
6667;SDS011;3370;47.712;9.082;2024-01-16T00:15:25;8.63;;;4.27;;
6667;SDS011;3370;47.712;9.082;2024-01-16T00:17:51;5.67;;;4.43;;
6667;SDS011;3370;47.712;9.082;2024-01-16T00:20:17;8.60;;;5.10;;
6667;SDS011;3370;47.712;9.082;2024-01-16T00:22:43;10.47;;;5.50;;
6667;SDS011;3370;47.712;9.082;2024-01-16T00:25:09;7.90;;;5.47;;
6667;SDS011;3370;47.712;9.082;2024-01-16T00:27:34;7.93;;;4.80;;
6667;SDS011;3370;47.712;9.082;2024-01-16T00:30:00;6.60;;;4.63;;
6667;SDS011;3370;47.712;9.082;2024-01-16T00:32:26;8.83;;;4.97;;
6667;SDS011;3370;47.712;9.082;2024-01-16T00:34:52;7.03;;;4.60;;
6667;SDS011;3370;47.712;9.082;2024-01-16T00:37:18;7.20;;;5.03;;
6667;SDS011;3370;47.712;9.082;2024-01-16T00:39:43;4.83;;;4.30;;
6667;SDS011;3370;47.712;9.082;2024-01-16T00:42:09;7.80;;;4.67;;
6667;SDS011;3370;47.712;9.082;2024-01-16T00:44:35;5.97;;;4.17;;
6667;SDS011;3370;47.712;9.082;2024-01-16T00:47:01;8.33;;;4.93;;
6667;SDS011;3370;47.712;9.082;2024-01-16T00:49:27;10.90;;;4.50;;
6667;SDS011;3370;47.712;9.082;2024-01-16T00:51:53;5.30;;;4.77;;
6667;SDS011;3370;47.712;9.082;2024-01-16T00:54:19;6.00;;;4.07;;
6667;SDS011;3370;47.712;9.082;2024-01-16T00:56:46;6.00;;;4.90;;
6667;SDS011;3370;47.712;9.082;2024-01-16T00:59:11;5.57;;;4.20;;
6667;SDS011;3370;47.712;9.082;2024-01-16T01:01:37;7.83;;;4.67;;
6667;SDS011;3370;47.712;9.082;2024-01-16T01:04:03;6.10;;;4.50;;
6667;SDS011;3370;47.712;9.082;2024-01-16T01:06:29;7.97;;;4.30;;
6667;SDS011;3370;47.712;9.082;2024-01-16T01:08:55;5.60;;;4.57;;
6667;SDS011;3370;47.712;9.082;2024-01-16T01:11:20;9.60;;;4.87;;
6667;SDS011;3370;47.712;9.082;2024-01-16T01:13:46;10.03;;;4.40;;
6667;SDS011;3370;47.712;9.082;2024-01-16T01:16:12;5.50;;;4.77;;
6667;SDS011;3370;47.712;9.082;2024-01-16T01:18:38;6.73;;;4.97;;
6667;SDS011;3370;47.712;9.082;2024-01-16T01:21:04;4.70;;;3.70;;
6667;SDS011;3370;47.712;9.082;2024-01-16T01:23:29;10.93;;;4.40;;
6667;SDS011;3370;47.712;9.082;2024-01-16T01:25:56;6.10;;;4.63;;
6667;SDS011;3370;47.712;9.082;2024-01-16T01:28:21;10.10;;;5.43;;
6667;SDS011;3370;47.712;9.082;2024-01-16T01:30:47;5.50;;;4.87;;
6667;SDS011;3370;47.712;9.082;2024-01-16T01:33:13;5.30;;;4.10;;
6667;SDS011;3370;47.712;9.082;2024-01-16T01:35:38;5.77;;;3.90;;
6667;SDS011;3370;47.712;9.082;2024-01-16T01:38:04;8.70;;;4.10;;
6667;SDS011;3370;47.712;9.082;2024-01-16T01:40:32;7.83;;;5.00;;
6667;SDS011;3370;47.712;9.082;2024-01-16T01:42:58;5.10;;;4.60;;
6667;SDS011;3370;47.712;9.082;2024-01-16T01:45:44;7.77;;;5.10;;
6667;SDS011;3370;47.712;9.082;2024-01-16T01:48:19;7.73;;;4.90;;
6667;SDS011;3370;47.712;9.082;2024-01-16T01:50:45;6.83;;;4.57;;
6667;SDS011;3370;47.712;9.082;2024-01-16T01:53:10;6.10;;;4.43;;
6667;SDS011;3370;47.712;9.082;2024-01-16T01:55:36;13.80;;;5.57;;
6667;SDS011;3370;47.712;9.082;2024-01-16T01:58:02;7.10;;;5.33;;
6667;SDS011;3370;47.712;9.082;2024-01-16T02:00:29;9.37;;;4.53;;
6667;SDS011;3370;47.712;9.082;2024-01-16T02:02:56;5.33;;;4.30;;
6667;SDS011;3370;47.712;9.082;2024-01-16T02:05:21;7.07;;;4.30;;
6667;SDS011;3370;47.712;9.082;2024-01-16T02:07:47;8.50;;;4.90;;
6667;SDS011;3370;47.712;9.082;2024-01-16T02:10:13;16.63;;;5.57;;
6667;SDS011;3370;47.712;9.082;2024-01-16T02:12:39;7.83;;;5.07;;
6667;SDS011;3370;47.712;9.082;2024-01-16T02:15:05;7.97;;;5.20;;
6667;SDS011;3370;47.712;9.082;2024-01-16T02:17:33;7.70;;;5.20;;
6667;SDS011;3370;47.712;9.082;2024-01-16T02:19:58;6.37;;;4.70;;
6667;SDS011;3370;47.712;9.082;2024-01-16T02:22:25;10.10;;;5.07;;
6667;SDS011;3370;47.712;9.082;2024-01-16T02:24:53;5.67;;;4.43;;
6667;SDS011;3370;47.712;9.082;2024-01-16T02:27:20;8.37;;;5.23;;
6667;SDS011;3370;47.712;9.082;2024-01-16T02:29:46;6.63;;;4.30;;
6667;SDS011;3370;47.712;9.082;2024-01-16T02:32:12;5.30;;;4.40;;
6667;SDS011;3370;47.712;9.082;2024-01-16T02:34:38;8.33;;;4.90;;
6667;SDS011;3370;47.712;9.082;2024-01-16T02:37:04;5.60;;;4.70;;
6667;SDS011;3370;47.712;9.082;2024-01-16T02:39:30;11.10;;;4.70;;
6667;SDS011;3370;47.712;9.082;2024-01-16T02:41:55;8.80;;;4.80;;
6667;SDS011;3370;47.712;9.082;2024-01-16T02:44:21;7.53;;;5.67;;
6667;SDS011;3370;47.712;9.082;2024-01-16T02:46:47;7.87;;;4.80;;
6667;SDS011;3370;47.712;9.082;2024-01-16T02:49:13;7.10;;;4.50;;
6667;SDS011;3370;47.712;9.082;2024-01-16T02:51:38;9.03;;;4.33;;
6667;SDS011;3370;47.712;9.082;2024-01-16T02:54:05;6.33;;;4.50;;
6667;SDS011;3370;47.712;9.082;2024-01-16T02:56:33;8.87;;;5.07;;
6667;SDS011;3370;47.712;9.082;2024-01-16T02:58:58;7.07;;;4.63;;
6667;SDS011;3370;47.712;9.082;2024-01-16T03:01:24;6.27;;;4.70;;
6667;SDS011;3370;47.712;9.082;2024-01-16T03:03:50;5.77;;;4.50;;
6667;SDS011;3370;47.712;9.082;2024-01-16T03:06:22;7.77;;;4.80;;
6667;SDS011;3370;47.712;9.082;2024-01-16T03:08:49;7.13;;;4.90;;
6667;SDS011;3370;47.712;9.082;2024-01-16T03:11:16;6.83;;;4.70;;
6667;SDS011;3370;47.712;9.082;2024-01-16T03:13:42;7.80;;;4.90;;
6667;SDS011;3370;47.712;9.082;2024-01-16T03:16:11;7.80;;;4.60;;
6667;SDS011;3370;47.712;9.082;2024-01-16T03:18:37;8.80;;;5.13;;
6667;SDS011;3370;47.712;9.082;2024-01-16T03:21:04;6.60;;;4.47;;
6667;SDS011;3370;47.712;9.082;2024-01-16T03:23:31;5.77;;;4.60;;
6667;SDS011;3370;47.712;9.082;2024-01-16T03:25:56;6.83;;;4.60;;
6667;SDS011;3370;47.712;9.082;2024-01-16T03:28:22;6.37;;;5.67;;
6667;SDS011;3370;47.712;9.082;2024-01-16T03:30:48;9.87;;;5.23;;
6667;SDS011;3370;47.712;9.082;2024-01-16T03:33:14;7.27;;;4.80;;
6667;SDS011;3370;47.712;9.082;2024-01-16T03:35:39;5.83;;;4.57;;
6667;SDS011;3370;47.712;9.082;2024-01-16T03:38:05;7.03;;;4.67;;
6667;SDS011;3370;47.712;9.082;2024-01-16T03:40:31;7.93;;;5.27;;
6667;SDS011;3370;47.712;9.082;2024-01-16T03:43:02;12.37;;;5.60;;
6667;SDS011;3370;47.712;9.082;2024-01-16T03:45:30;10.00;;;5.80;;
6667;SDS011;3370;47.712;9.082;2024-01-16T03:47:56;6.50;;;4.90;;
6667;SDS011;3370;47.712;9.082;2024-01-16T03:50:23;7.47;;;5.50;;
6667;SDS011;3370;47.712;9.082;2024-01-16T03:52:49;5.20;;;4.13;;
6667;SDS011;3370;47.712;9.082;2024-01-16T03:55:14;6.63;;;4.77;;
6667;SDS011;3370;47.712;9.082;2024-01-16T03:57:40;6.90;;;5.10;;
6667;SDS011;3370;47.712;9.082;2024-01-16T04:00:07;5.33;;;4.80;;
6667;SDS011;3370;47.712;9.082;2024-01-16T04:02:37;8.30;;;4.50;;
6667;SDS011;3370;47.712;9.082;2024-01-16T04:05:03;5.97;;;4.43;;
6667;SDS011;3370;47.712;9.082;2024-01-16T04:07:30;5.60;;;4.57;;
6667;SDS011;3370;47.712;9.082;2024-01-16T04:09:56;7.13;;;4.63;;
6667;SDS011;3370;47.712;9.082;2024-01-16T04:12:22;6.73;;;4.23;;
6667;SDS011;3370;47.712;9.082;2024-01-16T04:14:47;7.43;;;5.63;;
6667;SDS011;3370;47.712;9.082;2024-01-16T04:17:13;7.50;;;5.20;;
6667;SDS011;3370;47.712;9.082;2024-01-16T04:19:39;7.60;;;5.27;;
6667;SDS011;3370;47.712;9.082;2024-01-16T04:22:05;9.10;;;6.00;;
6667;SDS011;3370;47.712;9.082;2024-01-16T04:24:31;7.90;;;5.00;;
6667;SDS011;3370;47.712;9.082;2024-01-16T04:26:57;5.63;;;4.10;;
6667;SDS011;3370;47.712;9.082;2024-01-16T04:29:23;7.50;;;4.70;;
6667;SDS011;3370;47.712;9.082;2024-01-16T04:31:49;5.50;;;4.53;;
6667;SDS011;3370;47.712;9.082;2024-01-16T04:34:14;7.00;;;4.80;;
6667;SDS011;3370;47.712;9.082;2024-01-16T04:36:40;6.47;;;4.47;;
6667;SDS011;3370;47.712;9.082;2024-01-16T04:39:06;6.93;;;4.80;;
6667;SDS011;3370;47.712;9.082;2024-01-16T04:41:33;5.73;;;4.80;;
6667;SDS011;3370;47.712;9.082;2024-01-16T04:43:59;10.33;;;4.37;;
6667;SDS011;3370;47.712;9.082;2024-01-16T04:46:25;6.60;;;4.30;;
6667;SDS011;3370;47.712;9.082;2024-01-16T04:48:51;6.50;;;5.23;;
6667;SDS011;3370;47.712;9.082;2024-01-16T04:51:17;7.10;;;4.90;;
6667;SDS011;3370;47.712;9.082;2024-01-16T04:53:42;6.70;;;4.70;;
6667;SDS011;3370;47.712;9.082;2024-01-16T04:56:08;5.97;;;3.93;;
6667;SDS011;3370;47.712;9.082;2024-01-16T04:58:34;8.30;;;5.23;;
6667;SDS011;3370;47.712;9.082;2024-01-16T05:01:00;5.83;;;4.00;;
6667;SDS011;3370;47.712;9.082;2024-01-16T05:03:25;5.00;;;3.87;;
6667;SDS011;3370;47.712;9.082;2024-01-16T05:05:51;5.77;;;4.90;;
6667;SDS011;3370;47.712;9.082;2024-01-16T05:08:17;7.17;;;5.27;;
6667;SDS011;3370;47.712;9.082;2024-01-16T05:10:43;7.90;;;4.50;;
6667;SDS011;3370;47.712;9.082;2024-01-16T05:13:08;10.33;;;5.23;;
6667;SDS011;3370;47.712;9.082;2024-01-16T05:15:37;8.43;;;4.10;;
6667;SDS011;3370;47.712;9.082;2024-01-16T05:18:02;10.13;;;4.37;;
6667;SDS011;3370;47.712;9.082;2024-01-16T05:20:28;5.50;;;4.47;;
6667;SDS011;3370;47.712;9.082;2024-01-16T05:22:54;7.80;;;5.03;;
6667;SDS011;3370;47.712;9.082;2024-01-16T05:25:20;6.20;;;4.33;;
6667;SDS011;3370;47.712;9.082;2024-01-16T05:27:46;7.13;;;4.47;;
6667;SDS011;3370;47.712;9.082;2024-01-16T05:30:14;9.13;;;5.50;;
6667;SDS011;3370;47.712;9.082;2024-01-16T05:32:40;7.37;;;4.40;;
6667;SDS011;3370;47.712;9.082;2024-01-16T05:35:06;4.77;;;4.23;;
6667;SDS011;3370;47.712;9.082;2024-01-16T05:37:33;8.70;;;5.20;;
6667;SDS011;3370;47.712;9.082;2024-01-16T05:39:59;13.30;;;5.47;;
6667;SDS011;3370;47.712;9.082;2024-01-16T05:42:25;5.97;;;4.23;;
6667;SDS011;3370;47.712;9.082;2024-01-16T05:44:51;7.63;;;4.20;;
6667;SDS011;3370;47.712;9.082;2024-01-16T05:47:18;13.47;;;6.37;;
6667;SDS011;3370;47.712;9.082;2024-01-16T05:49:44;8.53;;;6.07;;
6667;SDS011;3370;47.712;9.082;2024-01-16T05:52:10;14.67;;;7.03;;
6667;SDS011;3370;47.712;9.082;2024-01-16T05:54:35;13.30;;;6.93;;
6667;SDS011;3370;47.712;9.082;2024-01-16T05:57:01;8.17;;;6.00;;
6667;SDS011;3370;47.712;9.082;2024-01-16T05:59:27;14.10;;;7.07;;
6667;SDS011;3370;47.712;9.082;2024-01-16T06:01:53;8.33;;;5.30;;
6667;SDS011;3370;47.712;9.082;2024-01-16T06:04:19;12.63;;;5.93;;
6667;SDS011;3370;47.712;9.082;2024-01-16T06:06:45;9.93;;;6.70;;
6667;SDS011;3370;47.712;9.082;2024-01-16T06:09:12;8.90;;;5.60;;
6667;SDS011;3370;47.712;9.082;2024-01-16T06:11:41;10.90;;;6.67;;
6667;SDS011;3370;47.712;9.082;2024-01-16T06:14:07;6.60;;;5.43;;
6667;SDS011;3370;47.712;9.082;2024-01-16T06:16:34;9.33;;;5.57;;
6667;SDS011;3370;47.712;9.082;2024-01-16T06:19:00;8.67;;;6.10;;
6667;SDS011;3370;47.712;9.082;2024-01-16T06:21:25;9.03;;;5.23;;
6667;SDS011;3370;47.712;9.082;2024-01-16T06:23:52;6.97;;;5.70;;
6667;SDS011;3370;47.712;9.082;2024-01-16T06:26:18;10.87;;;7.33;;
6667;SDS011;3370;47.712;9.082;2024-01-16T06:28:44;7.80;;;5.73;;
6667;SDS011;3370;47.712;9.082;2024-01-16T06:31:10;13.10;;;6.20;;
6667;SDS011;3370;47.712;9.082;2024-01-16T06:33:36;7.53;;;5.13;;
6667;SDS011;3370;47.712;9.082;2024-01-16T06:36:02;8.83;;;5.77;;
6667;SDS011;3370;47.712;9.082;2024-01-16T06:38:29;9.80;;;6.10;;
6667;SDS011;3370;47.712;9.082;2024-01-16T06:40:56;10.93;;;7.60;;
6667;SDS011;3370;47.712;9.082;2024-01-16T06:43:23;14.10;;;7.47;;
6667;SDS011;3370;47.712;9.082;2024-01-16T06:45:49;9.10;;;6.23;;
6667;SDS011;3370;47.712;9.082;2024-01-16T06:48:14;9.10;;;6.80;;
6667;SDS011;3370;47.712;9.082;2024-01-16T06:50:41;12.03;;;7.20;;
6667;SDS011;3370;47.712;9.082;2024-01-16T06:53:07;12.90;;;7.23;;
6667;SDS011;3370;47.712;9.082;2024-01-16T06:55:32;12.40;;;8.10;;
6667;SDS011;3370;47.712;9.082;2024-01-16T06:57:58;11.47;;;7.07;;
6667;SDS011;3370;47.712;9.082;2024-01-16T07:00:24;14.13;;;6.90;;
6667;SDS011;3370;47.712;9.082;2024-01-16T07:02:52;9.40;;;6.30;;
6667;SDS011;3370;47.712;9.082;2024-01-16T07:05:19;9.40;;;6.37;;
6667;SDS011;3370;47.712;9.082;2024-01-16T07:07:46;11.77;;;6.10;;
6667;SDS011;3370;47.712;9.082;2024-01-16T07:10:12;8.13;;;5.87;;
6667;SDS011;3370;47.712;9.082;2024-01-16T07:12:43;8.70;;;6.50;;
6667;SDS011;3370;47.712;9.082;2024-01-16T07:15:12;8.50;;;6.23;;
6667;SDS011;3370;47.712;9.082;2024-01-16T07:17:38;12.87;;;9.30;;
6667;SDS011;3370;47.712;9.082;2024-01-16T07:20:05;13.10;;;7.40;;
6667;SDS011;3370;47.712;9.082;2024-01-16T07:22:32;12.20;;;7.30;;
6667;SDS011;3370;47.712;9.082;2024-01-16T07:24:59;16.00;;;8.70;;
6667;SDS011;3370;47.712;9.082;2024-01-16T07:27:25;14.93;;;8.10;;
6667;SDS011;3370;47.712;9.082;2024-01-16T07:29:51;15.40;;;9.03;;
6667;SDS011;3370;47.712;9.082;2024-01-16T07:32:17;15.80;;;8.53;;
6667;SDS011;3370;47.712;9.082;2024-01-16T07:34:42;18.13;;;9.43;;
6667;SDS011;3370;47.712;9.082;2024-01-16T07:37:09;16.33;;;8.87;;
6667;SDS011;3370;47.712;9.082;2024-01-16T07:39:34;15.63;;;7.93;;
6667;SDS011;3370;47.712;9.082;2024-01-16T07:42:00;16.23;;;8.90;;
6667;SDS011;3370;47.712;9.082;2024-01-16T07:44:26;20.67;;;8.10;;
6667;SDS011;3370;47.712;9.082;2024-01-16T07:46:52;13.80;;;10.03;;
6667;SDS011;3370;47.712;9.082;2024-01-16T07:49:18;15.53;;;8.10;;
6667;SDS011;3370;47.712;9.082;2024-01-16T07:51:44;12.03;;;7.80;;
6667;SDS011;3370;47.712;9.082;2024-01-16T07:54:09;12.90;;;8.23;;
6667;SDS011;3370;47.712;9.082;2024-01-16T07:56:35;14.40;;;7.43;;
6667;SDS011;3370;47.712;9.082;2024-01-16T07:59:02;16.30;;;8.23;;
6667;SDS011;3370;47.712;9.082;2024-01-16T08:01:28;14.27;;;8.00;;
6667;SDS011;3370;47.712;9.082;2024-01-16T08:03:55;15.00;;;9.07;;
6667;SDS011;3370;47.712;9.082;2024-01-16T08:06:21;14.33;;;8.27;;
6667;SDS011;3370;47.712;9.082;2024-01-16T08:08:48;14.57;;;8.07;;
6667;SDS011;3370;47.712;9.082;2024-01-16T08:11:15;11.70;;;7.50;;
6667;SDS011;3370;47.712;9.082;2024-01-16T08:13:42;13.47;;;7.50;;
6667;SDS011;3370;47.712;9.082;2024-01-16T08:16:09;13.87;;;7.37;;
6667;SDS011;3370;47.712;9.082;2024-01-16T08:18:35;12.30;;;6.47;;
6667;SDS011;3370;47.712;9.082;2024-01-16T08:21:00;11.27;;;6.83;;
6667;SDS011;3370;47.712;9.082;2024-01-16T08:23:26;10.57;;;6.50;;
6667;SDS011;3370;47.712;9.082;2024-01-16T08:25:52;11.83;;;6.53;;
6667;SDS011;3370;47.712;9.082;2024-01-16T08:28:18;18.30;;;6.93;;
6667;SDS011;3370;47.712;9.082;2024-01-16T08:30:44;14.20;;;7.13;;
6667;SDS011;3370;47.712;9.082;2024-01-16T08:33:10;10.80;;;6.60;;
6667;SDS011;3370;47.712;9.082;2024-01-16T08:35:37;8.60;;;6.63;;
6667;SDS011;3370;47.712;9.082;2024-01-16T08:38:03;13.60;;;7.90;;
6667;SDS011;3370;47.712;9.082;2024-01-16T08:40:29;13.90;;;7.50;;
6667;SDS011;3370;47.712;9.082;2024-01-16T08:42:55;16.13;;;7.53;;
6667;SDS011;3370;47.712;9.082;2024-01-16T08:45:21;12.77;;;7.70;;
6667;SDS011;3370;47.712;9.082;2024-01-16T08:47:47;11.03;;;6.63;;
6667;SDS011;3370;47.712;9.082;2024-01-16T08:50:14;12.87;;;7.50;;
6667;SDS011;3370;47.712;9.082;2024-01-16T08:52:41;13.50;;;7.47;;
6667;SDS011;3370;47.712;9.082;2024-01-16T08:55:07;12.70;;;7.23;;
6667;SDS011;3370;47.712;9.082;2024-01-16T08:57:36;16.80;;;7.83;;
6667;SDS011;3370;47.712;9.082;2024-01-16T09:00:03;16.20;;;7.43;;
6667;SDS011;3370;47.712;9.082;2024-01-16T09:02:35;13.93;;;7.90;;
6667;SDS011;3370;47.712;9.082;2024-01-16T09:05:01;15.10;;;7.73;;
6667;SDS011;3370;47.712;9.082;2024-01-16T09:07:27;15.60;;;7.23;;
6667;SDS011;3370;47.712;9.082;2024-01-16T09:09:53;12.70;;;6.17;;
6667;SDS011;3370;47.712;9.082;2024-01-16T09:12:19;10.30;;;7.77;;
6667;SDS011;3370;47.712;9.082;2024-01-16T09:14:44;11.13;;;7.30;;
6667;SDS011;3370;47.712;9.082;2024-01-16T09:17:10;12.77;;;7.67;;
6667;SDS011;3370;47.712;9.082;2024-01-16T09:19:36;11.40;;;6.70;;
6667;SDS011;3370;47.712;9.082;2024-01-16T09:22:02;14.50;;;8.00;;
6667;SDS011;3370;47.712;9.082;2024-01-16T09:24:28;16.07;;;8.23;;
6667;SDS011;3370;47.712;9.082;2024-01-16T09:26:55;18.23;;;7.33;;
6667;SDS011;3370;47.712;9.082;2024-01-16T09:29:23;15.20;;;7.77;;
6667;SDS011;3370;47.712;9.082;2024-01-16T09:31:49;11.87;;;8.17;;
6667;SDS011;3370;47.712;9.082;2024-01-16T09:34:17;19.13;;;8.03;;
6667;SDS011;3370;47.712;9.082;2024-01-16T09:36:43;10.07;;;6.30;;
6667;SDS011;3370;47.712;9.082;2024-01-16T09:39:09;13.27;;;6.63;;
6667;SDS011;3370;47.712;9.082;2024-01-16T09:41:38;9.13;;;6.20;;
6667;SDS011;3370;47.712;9.082;2024-01-16T09:44:05;9.77;;;6.37;;
6667;SDS011;3370;47.712;9.082;2024-01-16T09:46:31;13.53;;;6.47;;
6667;SDS011;3370;47.712;9.082;2024-01-16T09:48:59;11.07;;;6.97;;
6667;SDS011;3370;47.712;9.082;2024-01-16T09:51:27;8.97;;;6.80;;
6667;SDS011;3370;47.712;9.082;2024-01-16T09:53:53;13.13;;;7.00;;
6667;SDS011;3370;47.712;9.082;2024-01-16T09:56:21;12.13;;;7.60;;
6667;SDS011;3370;47.712;9.082;2024-01-16T09:58:49;11.13;;;6.70;;
6667;SDS011;3370;47.712;9.082;2024-01-16T10:01:21;11.00;;;6.30;;
6667;SDS011;3370;47.712;9.082;2024-01-16T10:03:51;8.50;;;6.70;;
6667;SDS011;3370;47.712;9.082;2024-01-16T10:06:17;12.20;;;6.47;;
6667;SDS011;3370;47.712;9.082;2024-01-16T10:08:45;11.80;;;7.63;;
6667;SDS011;3370;47.712;9.082;2024-01-16T10:11:11;11.23;;;6.60;;
6667;SDS011;3370;47.712;9.082;2024-01-16T10:13:37;9.90;;;6.67;;
6667;SDS011;3370;47.712;9.082;2024-01-16T10:16:03;9.47;;;7.60;;
6667;SDS011;3370;47.712;9.082;2024-01-16T10:18:29;13.20;;;7.37;;
6667;SDS011;3370;47.712;9.082;2024-01-16T10:20:55;11.40;;;7.50;;
6667;SDS011;3370;47.712;9.082;2024-01-16T10:23:25;11.00;;;6.57;;
6667;SDS011;3370;47.712;9.082;2024-01-16T10:26:05;9.80;;;6.90;;
6667;SDS011;3370;47.712;9.082;2024-01-16T10:28:31;7.90;;;6.27;;
6667;SDS011;3370;47.712;9.082;2024-01-16T10:31:12;7.50;;;6.37;;
6667;SDS011;3370;47.712;9.082;2024-01-16T10:33:41;11.87;;;6.97;;
6667;SDS011;3370;47.712;9.082;2024-01-16T10:36:07;12.43;;;6.97;;
6667;SDS011;3370;47.712;9.082;2024-01-16T10:38:35;11.37;;;7.30;;
6667;SDS011;3370;47.712;9.082;2024-01-16T10:41:04;10.57;;;6.80;;
6667;SDS011;3370;47.712;9.082;2024-01-16T10:43:31;13.60;;;6.43;;
6667;SDS011;3370;47.712;9.082;2024-01-16T10:46:07;9.80;;;6.67;;
6667;SDS011;3370;47.712;9.082;2024-01-16T10:48:40;9.77;;;6.80;;
6667;SDS011;3370;47.712;9.082;2024-01-16T10:51:11;11.60;;;7.97;;
6667;SDS011;3370;47.712;9.082;2024-01-16T10:53:43;11.17;;;7.17;;
6667;SDS011;3370;47.712;9.082;2024-01-16T10:56:11;11.50;;;7.50;;
6667;SDS011;3370;47.712;9.082;2024-01-16T10:58:41;11.10;;;6.80;;
6667;SDS011;3370;47.712;9.082;2024-01-16T11:01:11;11.03;;;7.40;;
6667;SDS011;3370;47.712;9.082;2024-01-16T11:06:15;11.13;;;6.90;;
6667;SDS011;3370;47.712;9.082;2024-01-16T11:08:42;11.30;;;7.30;;
6667;SDS011;3370;47.712;9.082;2024-01-16T11:11:12;12.60;;;7.03;;
6667;SDS011;3370;47.712;9.082;2024-01-16T11:13:39;20.73;;;8.13;;
6667;SDS011;3370;47.712;9.082;2024-01-16T11:16:06;10.93;;;7.80;;
6667;SDS011;3370;47.712;9.082;2024-01-16T11:18:35;14.17;;;7.53;;
6667;SDS011;3370;47.712;9.082;2024-01-16T11:21:01;16.47;;;8.40;;
6667;SDS011;3370;47.712;9.082;2024-01-16T11:23:31;12.13;;;7.87;;
6667;SDS011;3370;47.712;9.082;2024-01-16T11:25:57;15.10;;;8.47;;
6667;SDS011;3370;47.712;9.082;2024-01-16T11:28:27;14.73;;;7.27;;
6667;SDS011;3370;47.712;9.082;2024-01-16T11:30:56;13.57;;;8.00;;
6667;SDS011;3370;47.712;9.082;2024-01-16T11:35:57;12.23;;;8.03;;
6667;SDS011;3370;47.712;9.082;2024-01-16T11:38:24;15.03;;;7.97;;
6667;SDS011;3370;47.712;9.082;2024-01-16T11:40:53;13.83;;;8.00;;
6667;SDS011;3370;47.712;9.082;2024-01-16T11:46:02;13.40;;;8.40;;
6667;SDS011;3370;47.712;9.082;2024-01-16T11:48:32;14.40;;;7.60;;
6667;SDS011;3370;47.712;9.082;2024-01-16T11:50:59;10.43;;;7.60;;
6667;SDS011;3370;47.712;9.082;2024-01-16T11:56:13;10.33;;;7.20;;
6667;SDS011;3370;47.712;9.082;2024-01-16T12:01:52;10.60;;;7.70;;
6667;SDS011;3370;47.712;9.082;2024-01-16T12:04:22;13.30;;;7.60;;
6667;SDS011;3370;47.712;9.082;2024-01-16T12:06:57;11.13;;;7.20;;
6667;SDS011;3370;47.712;9.082;2024-01-16T12:09:25;12.33;;;7.40;;
6667;SDS011;3370;47.712;9.082;2024-01-16T12:11:59;9.67;;;7.20;;
6667;SDS011;3370;47.712;9.082;2024-01-16T12:14:27;10.00;;;6.57;;
6667;SDS011;3370;47.712;9.082;2024-01-16T12:17:13;11.73;;;6.30;;
6667;SDS011;3370;47.712;9.082;2024-01-16T12:19:39;9.97;;;6.37;;
6667;SDS011;3370;47.712;9.082;2024-01-16T12:22:09;15.43;;;7.00;;
6667;SDS011;3370;47.712;9.082;2024-01-16T12:24:38;17.33;;;6.57;;
6667;SDS011;3370;47.712;9.082;2024-01-16T12:27:04;9.97;;;7.00;;
6667;SDS011;3370;47.712;9.082;2024-01-16T12:29:31;10.97;;;6.70;;
6667;SDS011;3370;47.712;9.082;2024-01-16T12:32:10;10.77;;;6.77;;
6667;SDS011;3370;47.712;9.082;2024-01-16T12:34:43;16.43;;;7.27;;
6667;SDS011;3370;47.712;9.082;2024-01-16T12:37:13;13.07;;;7.43;;
6667;SDS011;3370;47.712;9.082;2024-01-16T12:39:39;9.67;;;6.83;;
6667;SDS011;3370;47.712;9.082;2024-01-16T12:42:07;8.50;;;5.93;;
6667;SDS011;3370;47.712;9.082;2024-01-16T12:44:37;12.47;;;6.53;;
6667;SDS011;3370;47.712;9.082;2024-01-16T12:47:03;10.87;;;6.83;;
6667;SDS011;3370;47.712;9.082;2024-01-16T12:49:29;8.13;;;6.70;;
6667;SDS011;3370;47.712;9.082;2024-01-16T12:52:14;8.70;;;6.30;;
6667;SDS011;3370;47.712;9.082;2024-01-16T12:54:41;8.03;;;6.13;;
6667;SDS011;3370;47.712;9.082;2024-01-16T12:57:06;7.90;;;6.20;;
6667;SDS011;3370;47.712;9.082;2024-01-16T12:59:38;8.40;;;6.30;;
6667;SDS011;3370;47.712;9.082;2024-01-16T13:02:04;9.67;;;6.63;;
6667;SDS011;3370;47.712;9.082;2024-01-16T13:04:31;9.80;;;5.80;;
6667;SDS011;3370;47.712;9.082;2024-01-16T13:07:02;9.67;;;6.90;;
6667;SDS011;3370;47.712;9.082;2024-01-16T13:09:28;10.67;;;6.87;;
6667;SDS011;3370;47.712;9.082;2024-01-16T13:11:55;9.50;;;6.63;;
6667;SDS011;3370;47.712;9.082;2024-01-16T13:14:22;10.40;;;6.50;;
6667;SDS011;3370;47.712;9.082;2024-01-16T13:16:48;10.03;;;7.53;;
6667;SDS011;3370;47.712;9.082;2024-01-16T13:19:21;8.60;;;6.40;;
6667;SDS011;3370;47.712;9.082;2024-01-16T13:21:47;8.67;;;7.13;;
6667;SDS011;3370;47.712;9.082;2024-01-16T13:24:14;11.23;;;7.30;;
6667;SDS011;3370;47.712;9.082;2024-01-16T13:26:40;7.77;;;6.37;;
6667;SDS011;3370;47.712;9.082;2024-01-16T13:29:06;12.23;;;7.47;;
6667;SDS011;3370;47.712;9.082;2024-01-16T13:31:32;11.40;;;7.20;;
6667;SDS011;3370;47.712;9.082;2024-01-16T13:33:58;7.23;;;6.53;;
6667;SDS011;3370;47.712;9.082;2024-01-16T13:36:23;11.47;;;6.93;;
6667;SDS011;3370;47.712;9.082;2024-01-16T13:38:50;7.77;;;6.80;;
6667;SDS011;3370;47.712;9.082;2024-01-16T13:41:15;8.07;;;6.90;;
6667;SDS011;3370;47.712;9.082;2024-01-16T13:43:41;13.23;;;8.40;;
6667;SDS011;3370;47.712;9.082;2024-01-16T13:46:07;10.10;;;7.20;;
6667;SDS011;3370;47.712;9.082;2024-01-16T13:48:35;9.80;;;6.40;;
6667;SDS011;3370;47.712;9.082;2024-01-16T13:51:01;8.90;;;6.73;;
6667;SDS011;3370;47.712;9.082;2024-01-16T13:53:29;9.43;;;7.13;;
6667;SDS011;3370;47.712;9.082;2024-01-16T13:55:55;12.90;;;6.50;;
6667;SDS011;3370;47.712;9.082;2024-01-16T13:58:23;9.23;;;6.53;;
6667;SDS011;3370;47.712;9.082;2024-01-16T14:00:48;11.23;;;7.37;;
6667;SDS011;3370;47.712;9.082;2024-01-16T14:03:14;12.30;;;7.27;;
6667;SDS011;3370;47.712;9.082;2024-01-16T14:05:41;10.30;;;6.23;;
6667;SDS011;3370;47.712;9.082;2024-01-16T14:08:08;8.63;;;6.53;;
6667;SDS011;3370;47.712;9.082;2024-01-16T14:10:36;11.10;;;7.07;;
6667;SDS011;3370;47.712;9.082;2024-01-16T14:13:02;11.53;;;7.13;;
6667;SDS011;3370;47.712;9.082;2024-01-16T14:15:29;8.90;;;7.57;;
6667;SDS011;3370;47.712;9.082;2024-01-16T14:17:55;9.30;;;7.47;;
6667;SDS011;3370;47.712;9.082;2024-01-16T14:20:23;9.00;;;6.33;;
6667;SDS011;3370;47.712;9.082;2024-01-16T14:22:51;11.33;;;7.73;;
6667;SDS011;3370;47.712;9.082;2024-01-16T14:25:26;10.70;;;7.93;;
6667;SDS011;3370;47.712;9.082;2024-01-16T14:28:02;9.33;;;7.90;;
6667;SDS011;3370;47.712;9.082;2024-01-16T14:30:29;10.10;;;7.13;;
6667;SDS011;3370;47.712;9.082;2024-01-16T14:32:56;8.70;;;7.67;;
6667;SDS011;3370;47.712;9.082;2024-01-16T14:35:22;8.80;;;7.43;;
6667;SDS011;3370;47.712;9.082;2024-01-16T14:37:49;8.70;;;7.00;;
6667;SDS011;3370;47.712;9.082;2024-01-16T14:40:15;10.43;;;8.17;;
6667;SDS011;3370;47.712;9.082;2024-01-16T14:42:54;7.83;;;6.57;;
6667;SDS011;3370;47.712;9.082;2024-01-16T14:45:24;13.90;;;7.50;;
6667;SDS011;3370;47.712;9.082;2024-01-16T14:47:52;8.53;;;6.73;;
6667;SDS011;3370;47.712;9.082;2024-01-16T14:50:21;11.43;;;7.70;;
6667;SDS011;3370;47.712;9.082;2024-01-16T14:52:48;13.07;;;7.97;;
6667;SDS011;3370;47.712;9.082;2024-01-16T14:55:14;12.50;;;7.83;;
6667;SDS011;3370;47.712;9.082;2024-01-16T14:57:40;11.67;;;7.60;;
6667;SDS011;3370;47.712;9.082;2024-01-16T15:00:17;11.90;;;7.33;;
6667;SDS011;3370;47.712;9.082;2024-01-16T15:02:48;16.57;;;8.70;;
6667;SDS011;3370;47.712;9.082;2024-01-16T15:05:18;9.60;;;7.20;;
6667;SDS011;3370;47.712;9.082;2024-01-16T15:07:45;10.37;;;7.63;;
6667;SDS011;3370;47.712;9.082;2024-01-16T15:10:12;11.83;;;7.63;;
6667;SDS011;3370;47.712;9.082;2024-01-16T15:12:38;10.47;;;7.77;;
6667;SDS011;3370;47.712;9.082;2024-01-16T15:15:05;9.90;;;7.73;;
6667;SDS011;3370;47.712;9.082;2024-01-16T15:17:37;13.83;;;7.57;;
6667;SDS011;3370;47.712;9.082;2024-01-16T15:20:03;11.60;;;7.70;;